createdAt,value
2018-08-31T00:01:58.156Z,1.53
2018-08-31T00:04:39.625Z,1.60
2018-08-31T00:07:20.994Z,1.77
2018-08-31T00:12:09.932Z,1.90
2018-08-31T00:14:39.141Z,2.10
2018-08-31T00:17:08.152Z,1.83
2018-08-31T00:19:36.921Z,1.90
2018-08-31T00:22:05.697Z,2.03
2018-08-31T00:24:45.781Z,2.00
2018-08-31T00:27:25.802Z,1.97
2018-08-31T00:30:06.168Z,1.83
2018-08-31T00:34:51.357Z,1.60
2018-08-31T00:37:37.439Z,2.07
2018-08-31T00:40:46.599Z,1.63
2018-08-31T00:43:23.436Z,2.00
2018-08-31T00:45:52.184Z,2.03
2018-08-31T00:48:22.929Z,1.77
2018-08-31T00:50:51.725Z,2.00
2018-08-31T00:53:20.554Z,2.00
2018-08-31T00:55:49.241Z,2.23
2018-08-31T00:58:18.031Z,2.03
2018-08-31T01:00:46.817Z,2.10
2018-08-31T01:03:17.958Z,1.90
2018-08-31T01:05:46.693Z,2.17
2018-08-31T01:08:15.538Z,2.00
2018-08-31T01:10:44.347Z,2.00
2018-08-31T01:13:13.745Z,1.80
2018-08-31T01:15:42.425Z,1.83
2018-08-31T01:18:11.185Z,1.87
2018-08-31T01:20:40.022Z,2.30
2018-08-31T01:23:08.780Z,2.30
2018-08-31T01:25:37.856Z,2.27
2018-08-31T01:28:06.581Z,2.10
2018-08-31T01:30:35.445Z,1.90
2018-08-31T01:33:04.465Z,1.80
2018-08-31T01:35:33.294Z,2.10
2018-08-31T01:38:02.106Z,2.23
2018-08-31T01:40:30.957Z,2.10
2018-08-31T01:42:59.802Z,1.80
2018-08-31T01:45:28.665Z,2.10
2018-08-31T01:47:57.334Z,2.10
2018-08-31T01:50:26.282Z,1.87
2018-08-31T01:52:55.058Z,1.83
2018-08-31T01:55:29.307Z,2.03
2018-08-31T01:57:58.405Z,1.87
2018-08-31T02:00:27.377Z,2.17
2018-08-31T02:02:56.137Z,2.50
2018-08-31T02:05:25.049Z,1.93
2018-08-31T02:07:53.832Z,2.40
2018-08-31T02:10:22.645Z,2.10
2018-08-31T02:12:51.363Z,2.63
2018-08-31T02:15:20.152Z,2.00
2018-08-31T02:17:54.685Z,2.60
2018-08-31T02:20:24.294Z,2.40
2018-08-31T02:22:53.125Z,2.00
2018-08-31T02:25:21.922Z,2.20
2018-08-31T02:27:50.718Z,2.07
2018-08-31T02:30:19.494Z,2.30
2018-08-31T02:32:48.246Z,2.40
2018-08-31T02:35:17.010Z,2.40
2018-08-31T02:37:45.926Z,2.00
2018-08-31T02:40:14.653Z,2.40
2018-08-31T02:42:43.677Z,2.43
2018-08-31T02:45:12.521Z,2.50
2018-08-31T02:47:41.337Z,2.73
2018-08-31T02:50:10.056Z,2.30
2018-08-31T02:52:38.893Z,1.90
2018-08-31T02:55:07.661Z,2.50
2018-08-31T02:57:36.427Z,2.57
2018-08-31T03:00:09.373Z,2.23
2018-08-31T03:02:38.207Z,2.80
2018-08-31T03:05:06.986Z,2.80
2018-08-31T03:07:35.742Z,2.63
2018-08-31T03:10:04.667Z,2.67
2018-08-31T03:12:33.465Z,2.53
2018-08-31T03:15:02.238Z,2.40
2018-08-31T03:17:30.985Z,2.40
2018-08-31T03:19:59.915Z,1.80
2018-08-31T03:22:28.817Z,2.40
2018-08-31T03:24:57.432Z,2.20
2018-08-31T03:27:26.156Z,2.77
2018-08-31T03:29:55.106Z,2.40
2018-08-31T03:32:23.840Z,2.20
2018-08-31T03:34:52.931Z,2.30
2018-08-31T03:37:21.689Z,2.50
2018-08-31T03:39:50.647Z,2.03
2018-08-31T03:42:19.416Z,2.20
2018-08-31T03:44:48.138Z,1.80
2018-08-31T03:47:16.845Z,2.20
2018-08-31T03:49:45.730Z,2.70
2018-08-31T03:52:14.482Z,2.83
2018-08-31T03:54:45.402Z,2.27
2018-08-31T03:57:14.119Z,2.70
2018-08-31T03:59:42.864Z,2.70
2018-08-31T04:02:11.613Z,2.63
2018-08-31T04:04:40.319Z,2.30
2018-08-31T04:07:09.077Z,2.60
2018-08-31T04:09:37.810Z,2.57
2018-08-31T04:12:06.717Z,2.87
2018-08-31T04:14:35.509Z,2.50
2018-08-31T04:17:04.247Z,2.60
2018-08-31T04:19:32.957Z,2.00
2018-08-31T04:22:01.697Z,2.20
2018-08-31T04:24:30.438Z,2.23
2018-08-31T04:26:59.265Z,2.60
2018-08-31T04:29:28.040Z,2.10
2018-08-31T04:31:56.846Z,2.20
2018-08-31T04:34:25.542Z,2.47
2018-08-31T04:36:54.346Z,2.53
2018-08-31T04:39:23.097Z,2.67
2018-08-31T04:41:52.083Z,2.73
2018-08-31T04:44:21.245Z,2.80
2018-08-31T04:46:49.970Z,2.43
2018-08-31T04:49:18.713Z,2.60
2018-08-31T04:51:47.566Z,2.73
2018-08-31T04:54:16.410Z,2.83
2018-08-31T04:56:45.374Z,2.63
2018-08-31T04:59:14.235Z,2.20
2018-08-31T05:01:42.997Z,2.20
2018-08-31T05:04:12.042Z,2.70
2018-08-31T05:06:40.721Z,2.03
2018-08-31T05:09:11.019Z,2.60
2018-08-31T05:11:39.929Z,2.73
2018-08-31T05:14:08.727Z,2.27
2018-08-31T05:16:37.437Z,2.60
2018-08-31T05:19:06.470Z,2.07
2018-08-31T05:21:35.247Z,2.57
2018-08-31T05:24:03.955Z,2.60
2018-08-31T05:26:32.661Z,2.37
2018-08-31T05:29:01.538Z,2.70
2018-08-31T05:31:30.603Z,2.93
2018-08-31T05:33:59.419Z,2.90
2018-08-31T05:36:28.230Z,2.60
2018-08-31T05:38:57.121Z,2.83
2018-08-31T05:41:25.958Z,2.63
2018-08-31T05:43:54.694Z,2.40
2018-08-31T05:46:23.591Z,2.27
2018-08-31T05:48:52.344Z,2.13
2018-08-31T05:51:21.129Z,2.30
2018-08-31T05:53:49.868Z,3.20
2018-08-31T05:56:18.736Z,2.10
2018-08-31T05:58:47.446Z,2.00
2018-08-31T06:01:16.433Z,2.73
2018-08-31T06:03:45.538Z,2.77
2018-08-31T06:06:14.359Z,2.70
2018-08-31T06:08:43.113Z,2.10
2018-08-31T06:11:11.901Z,2.17
2018-08-31T06:13:40.666Z,2.53
2018-08-31T06:16:09.462Z,2.50
2018-08-31T06:18:38.217Z,2.20
2018-08-31T06:21:06.977Z,2.40
2018-08-31T06:23:35.732Z,2.60
2018-08-31T06:26:04.708Z,2.47
2018-08-31T06:28:33.445Z,2.83
2018-08-31T06:31:03.592Z,2.37
2018-08-31T06:33:32.303Z,2.50
2018-08-31T06:36:01.265Z,3.10
2018-08-31T06:38:30.051Z,2.70
2018-08-31T06:40:58.787Z,2.97
2018-08-31T06:43:27.621Z,3.00
2018-08-31T06:45:56.365Z,2.33
2018-08-31T06:48:25.184Z,2.57
2018-08-31T06:50:54.118Z,2.27
2018-08-31T06:53:22.877Z,2.37
2018-08-31T06:55:51.561Z,2.20
2018-08-31T06:58:20.598Z,2.80
2018-08-31T07:00:49.353Z,2.47
2018-08-31T07:03:18.124Z,2.03
2018-08-31T07:05:47.039Z,2.33
2018-08-31T07:08:15.925Z,3.17
2018-08-31T07:10:44.713Z,2.57
2018-08-31T07:13:13.509Z,2.83
2018-08-31T07:15:42.237Z,3.00
2018-08-31T07:18:10.947Z,3.03
2018-08-31T07:20:39.685Z,2.60
2018-08-31T07:23:08.457Z,2.27
2018-08-31T07:25:38.101Z,2.93
2018-08-31T07:28:06.994Z,2.97
2018-08-31T07:30:35.873Z,3.10
2018-08-31T07:33:04.569Z,2.80
2018-08-31T07:35:33.460Z,2.60
2018-08-31T07:38:02.233Z,3.50
2018-08-31T07:40:30.989Z,2.40
2018-08-31T07:43:00.006Z,2.87
2018-08-31T07:45:28.765Z,2.80
2018-08-31T07:47:57.467Z,3.00
2018-08-31T07:50:26.162Z,2.93
2018-08-31T07:52:54.921Z,2.77
2018-08-31T07:55:23.656Z,2.77
2018-08-31T08:00:43.627Z,2.67
2018-08-31T08:03:12.381Z,2.67
2018-08-31T08:05:41.241Z,3.80
2018-08-31T08:08:09.909Z,2.60
2018-08-31T08:10:38.646Z,3.03
2018-08-31T08:13:07.353Z,3.30
2018-08-31T08:15:52.593Z,3.40
2018-08-31T08:18:21.497Z,3.00
2018-08-31T08:20:50.263Z,3.27
2018-08-31T08:23:19.115Z,2.70
2018-08-31T08:25:47.905Z,2.83
2018-08-31T08:28:16.748Z,3.77
2018-08-31T08:30:45.513Z,2.77
2018-08-31T08:33:14.281Z,3.23
2018-08-31T08:35:43.066Z,3.27
2018-08-31T08:38:11.908Z,3.30
2018-08-31T08:40:40.896Z,2.60
2018-08-31T08:43:09.718Z,2.80
2018-08-31T08:45:44.759Z,2.53
2018-08-31T08:48:13.552Z,3.23
2018-08-31T08:50:42.370Z,2.67
2018-08-31T08:53:11.310Z,2.80
2018-08-31T08:55:40.002Z,2.57
2018-08-31T08:58:08.928Z,2.50
2018-08-31T09:00:37.802Z,2.23
2018-08-31T09:03:06.570Z,2.43
2018-08-31T09:05:35.383Z,2.70
2018-08-31T09:08:04.413Z,1.60
2018-08-31T09:10:33.185Z,1.87
2018-08-31T09:13:02.088Z,1.73
2018-08-31T09:15:36.963Z,1.90
2018-08-31T09:18:05.773Z,1.70
2018-08-31T09:20:34.622Z,1.40
2018-08-31T09:23:03.349Z,1.47
2018-08-31T09:25:32.146Z,1.63
2018-08-31T09:28:00.878Z,1.70
2018-08-31T09:30:35.842Z,1.70
2018-08-31T09:33:04.622Z,1.70
2018-08-31T09:35:33.414Z,1.40
2018-08-31T09:38:02.177Z,1.10
2018-08-31T09:40:30.985Z,1.40
2018-08-31T09:43:02.030Z,1.53
2018-08-31T09:45:30.838Z,1.90
2018-08-31T09:47:59.630Z,1.50
2018-08-31T09:50:28.625Z,1.40
2018-08-31T09:52:57.489Z,1.70
2018-08-31T09:55:26.293Z,1.40
2018-08-31T09:57:55.067Z,1.60
2018-08-31T10:00:29.073Z,1.40
2018-08-31T10:03:03.207Z,1.07
2018-08-31T10:05:32.252Z,1.10
2018-08-31T10:08:00.971Z,1.37
2018-08-31T10:10:31.840Z,1.17
2018-08-31T10:13:00.878Z,1.40
2018-08-31T10:15:29.750Z,1.50
2018-08-31T10:17:58.497Z,1.80
2018-08-31T10:20:28.345Z,1.67
2018-08-31T10:22:57.135Z,1.60
2018-08-31T10:25:26.057Z,1.90
2018-08-31T10:27:54.754Z,1.67
2018-08-31T10:30:23.765Z,1.70
2018-08-31T10:32:56.633Z,1.60
2018-08-31T10:35:25.526Z,1.40
2018-08-31T10:37:54.626Z,1.40
2018-08-31T10:40:23.401Z,1.80
2018-08-31T10:42:52.247Z,1.30
2018-08-31T10:45:20.930Z,1.23
2018-08-31T10:47:49.694Z,1.30
2018-08-31T10:50:18.424Z,1.47
2018-08-31T10:52:51.327Z,1.40
2018-08-31T10:55:20.137Z,1.50
2018-08-31T10:58:11.990Z,1.37
2018-08-31T11:00:40.818Z,1.40
2018-08-31T11:03:09.625Z,1.60
2018-08-31T11:05:38.501Z,1.50
2018-08-31T11:08:07.383Z,1.40
2018-08-31T11:10:36.239Z,1.40
2018-08-31T11:13:05.350Z,1.43
2018-08-31T11:15:34.163Z,1.47
2018-08-31T11:18:03.053Z,1.63
2018-08-31T11:20:31.889Z,1.70
2018-08-31T11:23:01.042Z,1.40
2018-08-31T11:25:31.113Z,1.63
2018-08-31T11:27:59.969Z,1.60
2018-08-31T11:30:32.784Z,1.57
2018-08-31T11:33:01.588Z,2.23
2018-08-31T11:35:30.423Z,1.80
2018-08-31T11:38:00.550Z,1.53
2018-08-31T11:40:29.841Z,1.60
2018-08-31T11:42:58.856Z,1.90
2018-08-31T11:45:36.454Z,1.50
2018-08-31T11:48:05.270Z,1.47
2018-08-31T11:50:36.839Z,1.33
2018-08-31T11:53:06.777Z,1.40
2018-08-31T11:55:37.227Z,1.30
2018-08-31T11:58:16.462Z,1.37
2018-08-31T12:00:46.176Z,1.37
2018-08-31T12:03:15.284Z,1.57
2018-08-31T12:05:46.919Z,1.27
2018-08-31T12:08:17.120Z,1.40
2018-08-31T12:10:46.201Z,1.40
2018-08-31T12:13:15.432Z,3.33
2018-08-31T12:15:44.741Z,1.90
2018-08-31T12:18:13.870Z,1.57
2018-08-31T12:20:46.310Z,1.63
2018-08-31T12:23:15.705Z,1.27
2018-08-31T12:25:45.044Z,1.50
2018-08-31T12:28:14.364Z,1.37
2018-08-31T12:30:43.481Z,1.50
2018-08-31T12:33:12.693Z,1.10
2018-08-31T12:35:42.226Z,1.43
2018-08-31T12:38:13.616Z,1.73
2018-08-31T12:40:42.720Z,1.73
2018-08-31T12:43:12.005Z,1.83
2018-08-31T12:45:41.555Z,1.50
2018-08-31T12:48:11.124Z,1.30
2018-08-31T12:50:40.329Z,1.20
2018-08-31T12:53:09.645Z,1.60
2018-08-31T12:55:39.021Z,1.53
2018-08-31T12:58:15.366Z,1.80
2018-08-31T13:00:44.318Z,1.77
2018-08-31T13:03:13.382Z,1.13
2018-08-31T13:05:42.372Z,1.40
2018-08-31T13:08:11.246Z,3.37
2018-08-31T13:10:40.134Z,3.27
2018-08-31T13:13:08.917Z,2.50
2018-08-31T13:15:37.794Z,2.97
2018-08-31T13:18:06.642Z,1.80
2018-08-31T13:20:35.636Z,2.20
2018-08-31T13:23:08.589Z,1.77
2018-08-31T13:25:37.461Z,2.27
2018-08-31T13:28:06.493Z,1.57
2018-08-31T13:30:35.350Z,1.83
2018-08-31T13:33:04.349Z,1.80
2018-08-31T13:35:33.361Z,1.60
2018-08-31T13:38:02.422Z,2.17
2018-08-31T13:40:31.394Z,1.97
2018-08-31T13:43:00.231Z,5.30
2018-08-31T13:45:29.087Z,3.43
2018-08-31T13:47:57.819Z,3.90
2018-08-31T13:50:31.746Z,2.77
2018-08-31T13:53:00.679Z,2.27
2018-08-31T13:55:29.785Z,1.60
2018-08-31T13:57:58.610Z,1.60
2018-08-31T14:00:27.444Z,1.90
2018-08-31T14:02:56.211Z,1.73
2018-08-31T14:05:25.635Z,1.77
2018-08-31T14:07:59.209Z,1.60
2018-08-31T14:10:28.496Z,14.40
2018-08-31T14:12:57.530Z,5.97
2018-08-31T14:15:26.800Z,2.40
2018-08-31T14:17:55.740Z,2.60
2018-08-31T14:20:24.620Z,1.37
2018-08-31T14:22:53.518Z,1.60
2018-08-31T14:25:22.317Z,1.60
2018-08-31T14:27:51.828Z,1.43
2018-08-31T14:30:20.798Z,1.10
2018-08-31T14:32:49.908Z,1.40
2018-08-31T14:35:19.380Z,1.80
2018-08-31T14:37:48.854Z,2.20
2018-08-31T14:40:23.379Z,1.60
2018-08-31T14:42:52.740Z,1.27
2018-08-31T14:45:22.171Z,1.33
2018-08-31T14:47:51.168Z,1.60
2018-08-31T14:50:20.378Z,1.23
2018-08-31T14:52:49.794Z,1.40
2018-08-31T14:55:18.589Z,1.70
2018-08-31T14:57:48.881Z,1.73
2018-08-31T15:00:18.301Z,1.77
2018-08-31T15:02:47.625Z,1.43
2018-08-31T15:05:16.937Z,1.93
2018-08-31T15:07:50.983Z,2.50
2018-08-31T15:10:20.182Z,2.27
2018-08-31T15:12:50.179Z,2.20
2018-08-31T15:15:20.021Z,1.57
2018-08-31T15:17:53.717Z,1.87
2018-08-31T15:20:23.029Z,1.90
2018-08-31T15:22:52.330Z,2.00
2018-08-31T15:25:22.070Z,1.90
2018-08-31T15:27:51.463Z,1.80
2018-08-31T15:30:20.858Z,1.80
2018-08-31T15:32:50.354Z,1.80
2018-08-31T15:35:24.964Z,1.97
2018-08-31T15:37:54.807Z,2.07
2018-08-31T15:40:23.835Z,1.80
2018-08-31T15:42:52.667Z,1.90
2018-08-31T15:45:21.597Z,2.10
2018-08-31T15:47:50.747Z,2.13
2018-08-31T15:50:19.549Z,2.10
2018-08-31T15:52:55.992Z,2.00
2018-08-31T15:55:24.860Z,2.23
2018-08-31T15:57:53.698Z,1.97
2018-08-31T16:00:22.687Z,2.20
2018-08-31T16:02:51.502Z,2.20
2018-08-31T16:05:20.200Z,1.93
2018-08-31T16:07:48.968Z,1.87
2018-08-31T16:10:18.081Z,1.70
2018-08-31T16:12:46.978Z,2.10
2018-08-31T16:15:16.197Z,1.83
2018-08-31T16:17:45.112Z,1.77
2018-08-31T16:20:13.864Z,1.63
2018-08-31T16:22:42.633Z,1.50
2018-08-31T16:25:11.366Z,1.77
2018-08-31T16:27:40.485Z,1.90
2018-08-31T16:30:09.275Z,1.70
2018-08-31T16:32:43.987Z,1.90
2018-08-31T16:35:12.963Z,1.67
2018-08-31T16:37:41.919Z,1.87
2018-08-31T16:40:10.669Z,1.80
2018-08-31T16:42:40.554Z,1.73
2018-08-31T16:45:09.370Z,1.70
2018-08-31T16:47:38.149Z,1.93
2018-08-31T16:50:07.106Z,2.10
2018-08-31T16:52:44.793Z,1.73
2018-08-31T16:55:13.676Z,1.67
2018-08-31T16:57:42.531Z,1.40
2018-08-31T17:00:11.267Z,1.73
2018-08-31T17:02:40.094Z,1.67
2018-08-31T17:05:08.930Z,1.70
2018-08-31T17:07:37.971Z,1.40
2018-08-31T17:10:06.750Z,1.43
2018-08-31T17:12:35.741Z,1.40
2018-08-31T17:15:04.533Z,1.70
2018-08-31T17:17:33.446Z,1.20
2018-08-31T17:20:02.309Z,1.30
2018-08-31T17:22:31.190Z,1.30
2018-08-31T17:25:00.097Z,1.20
2018-08-31T17:27:34.461Z,1.53
2018-08-31T17:30:08.757Z,1.33
2018-08-31T17:32:43.036Z,1.30
2018-08-31T17:35:17.153Z,1.27
2018-08-31T17:37:45.913Z,1.33
2018-08-31T17:40:14.774Z,1.30
2018-08-31T17:42:43.702Z,1.20
2018-08-31T17:45:16.605Z,1.30
2018-08-31T17:47:45.945Z,1.30
2018-08-31T17:50:14.919Z,1.20
2018-08-31T17:52:43.843Z,1.27
2018-08-31T17:55:12.778Z,1.60
2018-08-31T17:57:41.651Z,1.40
2018-08-31T18:00:10.891Z,1.23
2018-08-31T18:02:39.837Z,1.57
2018-08-31T18:05:08.645Z,1.40
2018-08-31T18:07:49.886Z,1.27
2018-08-31T18:10:18.698Z,1.30
2018-08-31T18:12:47.725Z,1.10
2018-08-31T18:15:16.683Z,1.27
2018-08-31T18:17:58.802Z,1.10
2018-08-31T18:20:27.750Z,0.93
2018-08-31T18:23:02.745Z,1.20
2018-08-31T18:25:39.913Z,1.00
2018-08-31T18:28:09.474Z,1.10
2018-08-31T18:30:39.026Z,1.20
2018-08-31T18:33:08.330Z,1.20
2018-08-31T18:35:38.065Z,1.20
2018-08-31T18:38:07.900Z,1.30
2018-08-31T18:40:37.351Z,1.10
2018-08-31T18:43:06.853Z,1.00
2018-08-31T18:45:36.498Z,1.20
2018-08-31T18:48:06.067Z,1.20
2018-08-31T18:50:36.451Z,1.10
2018-08-31T18:53:05.756Z,1.30
2018-08-31T18:55:35.173Z,1.57
2018-08-31T18:58:04.094Z,0.90
2018-08-31T19:00:44.018Z,1.37
2018-08-31T19:03:12.820Z,1.10
2018-08-31T19:05:42.421Z,1.00
2018-08-31T19:08:11.317Z,1.00
2018-08-31T19:10:40.271Z,1.03
2018-08-31T19:13:09.098Z,0.90
2018-08-31T19:15:37.921Z,1.00
2018-08-31T19:18:08.913Z,1.13
2018-08-31T19:20:37.806Z,1.40
2018-08-31T19:23:06.642Z,1.03
2018-08-31T19:25:35.785Z,1.17
2018-08-31T19:28:04.473Z,1.33
2018-08-31T19:30:33.241Z,1.10
2018-08-31T19:33:02.032Z,1.43
2018-08-31T19:35:39.593Z,1.10
2018-08-31T19:38:08.530Z,1.20
2018-08-31T19:40:37.248Z,1.30
2018-08-31T19:43:06.239Z,1.13
2018-08-31T19:45:35.191Z,1.20
2018-08-31T19:48:04.301Z,1.00
2018-08-31T19:50:33.168Z,1.20
2018-08-31T19:53:02.980Z,0.80
2018-08-31T19:55:31.723Z,1.20
2018-08-31T19:58:00.760Z,1.40
2018-08-31T20:00:29.594Z,1.20
2018-08-31T20:02:58.415Z,1.20
2018-08-31T20:05:27.337Z,1.10
2018-08-31T20:07:56.222Z,0.80
2018-08-31T20:10:25.002Z,1.30
2018-08-31T20:12:53.797Z,1.00
2018-08-31T20:15:22.896Z,1.20
2018-08-31T20:17:51.680Z,1.10
2018-08-31T20:20:20.595Z,0.73
2018-08-31T20:22:49.482Z,0.80
2018-08-31T20:25:18.159Z,0.90
2018-08-31T20:27:46.950Z,1.03
2018-08-31T20:30:15.729Z,0.90
2018-08-31T20:32:44.696Z,1.10
2018-08-31T20:35:13.534Z,0.93
2018-08-31T20:37:42.441Z,1.13
2018-08-31T20:40:11.350Z,1.20
2018-08-31T20:42:40.353Z,1.00
2018-08-31T20:45:09.983Z,0.97
2018-08-31T20:47:38.755Z,1.20
2018-08-31T20:50:07.878Z,1.40
2018-08-31T20:52:36.865Z,1.20
2018-08-31T20:55:06.348Z,1.23
2018-08-31T20:57:35.305Z,1.13
2018-08-31T21:00:04.294Z,1.07
2018-08-31T21:02:33.034Z,1.47
2018-08-31T21:05:01.874Z,1.00
2018-08-31T21:07:30.786Z,1.17
2018-08-31T21:09:59.717Z,0.90
2018-08-31T21:12:28.719Z,1.00
2018-08-31T21:14:57.623Z,1.20
2018-08-31T21:17:26.723Z,0.93
2018-08-31T21:19:55.497Z,1.03
2018-08-31T21:22:24.258Z,1.00
2018-08-31T21:24:53.173Z,1.17
2018-08-31T21:27:22.171Z,0.80
2018-08-31T21:29:50.927Z,0.97
2018-08-31T21:32:20.350Z,1.30
2018-08-31T21:34:49.318Z,1.03
2018-08-31T21:37:18.248Z,1.03
2018-08-31T21:39:47.065Z,1.17
2018-08-31T21:42:16.120Z,1.00
2018-08-31T21:44:44.997Z,1.40
2018-08-31T21:47:14.034Z,1.50
2018-08-31T21:49:42.922Z,1.57
2018-08-31T21:52:11.806Z,1.30
2018-08-31T21:54:40.778Z,1.00
2018-08-31T21:57:09.809Z,1.53
2018-08-31T21:59:38.929Z,0.80
2018-08-31T22:02:07.874Z,1.20
2018-08-31T22:04:36.737Z,1.10
2018-08-31T22:07:06.008Z,0.80
2018-08-31T22:09:36.898Z,0.87
2018-08-31T22:12:06.126Z,1.20
2018-08-31T22:14:35.058Z,1.13
2018-08-31T22:17:04.053Z,1.10
2018-08-31T22:19:33.053Z,1.13
2018-08-31T22:22:01.937Z,1.00
2018-08-31T22:24:30.669Z,1.10
2018-08-31T22:26:59.546Z,0.80
2018-08-31T22:29:28.383Z,0.73
2018-08-31T22:31:57.147Z,0.70
2018-08-31T22:34:26.033Z,0.77
2018-08-31T22:36:54.823Z,0.80
2018-08-31T22:39:23.712Z,1.57
2018-08-31T22:41:52.666Z,1.20
2018-08-31T22:44:21.564Z,1.13
2018-08-31T22:46:50.350Z,1.03
2018-08-31T22:49:19.110Z,1.00
2018-08-31T22:51:48.005Z,0.87
2018-08-31T22:54:16.742Z,1.03
2018-08-31T22:56:45.545Z,1.10
2018-08-31T22:59:14.508Z,1.30
2018-08-31T23:01:43.305Z,2.40
2018-08-31T23:04:12.089Z,0.90
2018-08-31T23:06:40.866Z,1.30
2018-08-31T23:09:09.736Z,0.90
2018-08-31T23:11:38.537Z,0.70
2018-08-31T23:14:07.397Z,0.90
2018-08-31T23:16:36.434Z,0.97
2018-08-31T23:19:05.427Z,1.00
2018-08-31T23:21:34.349Z,1.00
2018-08-31T23:24:02.983Z,1.10
2018-08-31T23:26:31.762Z,1.07
2018-08-31T23:29:01.067Z,1.00
2018-08-31T23:31:29.878Z,0.83
2018-08-31T23:33:58.692Z,0.80
2018-08-31T23:36:27.673Z,1.00
2018-08-31T23:38:56.441Z,0.73
2018-08-31T23:41:25.417Z,1.00
2018-08-31T23:43:58.345Z,0.87
2018-08-31T23:46:27.213Z,1.07
2018-08-31T23:48:56.036Z,1.00
2018-08-31T23:51:24.765Z,0.90
2018-08-31T23:53:53.676Z,1.07
2018-08-31T23:56:22.458Z,1.00
2018-08-31T23:58:51.355Z,0.90
